sensor_id;sensor_type;location;lat;lon;timestamp;temperature;humidity
55211;DHT22;41082;52.822;6.666;2023-05-18T00:01:38;8.90;99.90
55211;DHT22;41082;52.822;6.666;2023-05-18T00:04:06;8.80;99.90
55211;DHT22;41082;52.822;6.666;2023-05-18T00:06:32;8.80;99.90
55211;DHT22;41082;52.822;6.666;2023-05-18T00:08:58;8.80;99.90
55211;DHT22;41082;52.822;6.666;2023-05-18T00:11:23;8.80;99.90
55211;DHT22;41082;52.822;6.666;2023-05-18T00:13:49;8.80;99.90
55211;DHT22;41082;52.822;6.666;2023-05-18T00:16:15;8.80;99.90
55211;DHT22;41082;52.822;6.666;2023-05-18T00:18:41;8.80;99.90
55211;DHT22;41082;52.822;6.666;2023-05-18T00:21:06;8.80;99.90
55211;DHT22;41082;52.822;6.666;2023-05-18T00:23:33;8.80;99.90
55211;DHT22;41082;52.822;6.666;2023-05-18T00:26:00;8.80;99.90
55211;DHT22;41082;52.822;6.666;2023-05-18T00:28:26;8.70;99.90
55211;DHT22;41082;52.822;6.666;2023-05-18T00:30:53;8.70;99.90
55211;DHT22;41082;52.822;6.666;2023-05-18T00:33:18;8.70;99.90
55211;DHT22;41082;52.822;6.666;2023-05-18T00:35:44;8.70;99.90
55211;DHT22;41082;52.822;6.666;2023-05-18T00:38:10;8.70;99.90
55211;DHT22;41082;52.822;6.666;2023-05-18T00:40:42;8.60;99.90
55211;DHT22;41082;52.822;6.666;2023-05-18T00:43:08;8.70;99.90
55211;DHT22;41082;52.822;6.666;2023-05-18T00:45:34;8.60;99.90
55211;DHT22;41082;52.822;6.666;2023-05-18T00:48:00;8.60;99.90
55211;DHT22;41082;52.822;6.666;2023-05-18T00:50:26;8.60;99.90
55211;DHT22;41082;52.822;6.666;2023-05-18T00:52:52;8.60;99.90
55211;DHT22;41082;52.822;6.666;2023-05-18T00:55:17;8.60;99.90
55211;DHT22;41082;52.822;6.666;2023-05-18T00:57:44;8.60;99.90
55211;DHT22;41082;52.822;6.666;2023-05-18T01:00:12;8.60;99.90
55211;DHT22;41082;52.822;6.666;2023-05-18T01:02:40;8.60;99.90
55211;DHT22;41082;52.822;6.666;2023-05-18T01:05:10;8.60;99.90
55211;DHT22;41082;52.822;6.666;2023-05-18T01:07:40;8.60;99.90
55211;DHT22;41082;52.822;6.666;2023-05-18T01:10:10;8.60;99.90
55211;DHT22;41082;52.822;6.666;2023-05-18T01:13:08;8.60;99.90
55211;DHT22;41082;52.822;6.666;2023-05-18T01:15:37;8.50;99.90
55211;DHT22;41082;52.822;6.666;2023-05-18T01:18:10;8.50;99.90
55211;DHT22;41082;52.822;6.666;2023-05-18T01:20:58;8.50;99.90
55211;DHT22;41082;52.822;6.666;2023-05-18T01:26:29;8.50;99.90
55211;DHT22;41082;52.822;6.666;2023-05-18T01:28:58;8.60;99.90
55211;DHT22;41082;52.822;6.666;2023-05-18T01:31:26;8.60;99.90
55211;DHT22;41082;52.822;6.666;2023-05-18T01:33:51;8.50;99.90
55211;DHT22;41082;52.822;6.666;2023-05-18T01:36:17;8.50;99.90
55211;DHT22;41082;52.822;6.666;2023-05-18T01:38:43;8.50;99.90
55211;DHT22;41082;52.822;6.666;2023-05-18T01:41:29;8.50;99.90
55211;DHT22;41082;52.822;6.666;2023-05-18T01:44:23;8.50;99.90
55211;DHT22;41082;52.822;6.666;2023-05-18T01:46:58;8.50;99.90
55211;DHT22;41082;52.822;6.666;2023-05-18T01:49:53;8.50;99.90
55211;DHT22;41082;52.822;6.666;2023-05-18T01:52:53;8.50;99.90
55211;DHT22;41082;52.822;6.666;2023-05-18T01:55:22;8.50;99.90
55211;DHT22;41082;52.822;6.666;2023-05-18T01:57:50;8.40;99.90
55211;DHT22;41082;52.822;6.666;2023-05-18T02:00:17;8.40;99.90
55211;DHT22;41082;52.822;6.666;2023-05-18T02:02:44;8.40;99.90
55211;DHT22;41082;52.822;6.666;2023-05-18T02:05:09;8.40;99.90
55211;DHT22;41082;52.822;6.666;2023-05-18T02:07:39;8.40;99.90
55211;DHT22;41082;52.822;6.666;2023-05-18T02:10:05;8.40;99.90
55211;DHT22;41082;52.822;6.666;2023-05-18T02:12:31;8.40;99.90
55211;DHT22;41082;52.822;6.666;2023-05-18T02:14:57;8.40;99.90
55211;DHT22;41082;52.822;6.666;2023-05-18T02:17:24;8.30;99.90
55211;DHT22;41082;52.822;6.666;2023-05-18T02:19:53;8.30;99.90
55211;DHT22;41082;52.822;6.666;2023-05-18T02:22:18;8.30;99.90
55211;DHT22;41082;52.822;6.666;2023-05-18T02:24:44;8.30;99.90
55211;DHT22;41082;52.822;6.666;2023-05-18T02:27:10;8.30;99.90
55211;DHT22;41082;52.822;6.666;2023-05-18T02:29:36;8.30;99.90
55211;DHT22;41082;52.822;6.666;2023-05-18T02:32:02;8.30;99.90
55211;DHT22;41082;52.822;6.666;2023-05-18T02:34:28;8.30;99.90
55211;DHT22;41082;52.822;6.666;2023-05-18T02:36:57;8.30;99.90
55211;DHT22;41082;52.822;6.666;2023-05-18T02:39:28;8.30;99.90
55211;DHT22;41082;52.822;6.666;2023-05-18T02:41:53;8.30;99.90
55211;DHT22;41082;52.822;6.666;2023-05-18T02:44:19;8.30;99.90
55211;DHT22;41082;52.822;6.666;2023-05-18T02:46:44;8.30;99.90
55211;DHT22;41082;52.822;6.666;2023-05-18T02:49:10;8.30;99.90
55211;DHT22;41082;52.822;6.666;2023-05-18T02:51:36;8.20;99.90
55211;DHT22;41082;52.822;6.666;2023-05-18T02:54:01;8.20;99.90
55211;DHT22;41082;52.822;6.666;2023-05-18T02:56:27;8.20;99.90
55211;DHT22;41082;52.822;6.666;2023-05-18T02:58:53;8.20;99.90
55211;DHT22;41082;52.822;6.666;2023-05-18T03:01:22;8.20;99.90
55211;DHT22;41082;52.822;6.666;2023-05-18T03:03:54;8.20;99.90
55211;DHT22;41082;52.822;6.666;2023-05-18T03:06:22;8.20;99.90
55211;DHT22;41082;52.822;6.666;2023-05-18T03:08:53;8.20;99.90
55211;DHT22;41082;52.822;6.666;2023-05-18T03:11:20;8.20;99.90
55211;DHT22;41082;52.822;6.666;2023-05-18T03:13:46;8.20;99.90
55211;DHT22;41082;52.822;6.666;2023-05-18T03:16:12;8.20;99.90
55211;DHT22;41082;52.822;6.666;2023-05-18T03:18:38;8.20;99.90
55211;DHT22;41082;52.822;6.666;2023-05-18T03:21:04;8.20;99.90
55211;DHT22;41082;52.822;6.666;2023-05-18T03:23:30;8.20;99.90
55211;DHT22;41082;52.822;6.666;2023-05-18T03:25:56;8.20;99.90
55211;DHT22;41082;52.822;6.666;2023-05-18T03:28:21;8.10;99.90
55211;DHT22;41082;52.822;6.666;2023-05-18T03:30:47;8.10;99.90
55211;DHT22;41082;52.822;6.666;2023-05-18T03:33:13;8.10;99.90
55211;DHT22;41082;52.822;6.666;2023-05-18T03:35:39;8.10;99.90
55211;DHT22;41082;52.822;6.666;2023-05-18T03:38:05;8.10;99.90
55211;DHT22;41082;52.822;6.666;2023-05-18T03:40:31;8.10;99.90
55211;DHT22;41082;52.822;6.666;2023-05-18T03:42:57;8.10;99.90
55211;DHT22;41082;52.822;6.666;2023-05-18T03:45:23;8.10;99.90
55211;DHT22;41082;52.822;6.666;2023-05-18T03:47:48;8.10;99.90
55211;DHT22;41082;52.822;6.666;2023-05-18T03:50:14;8.10;99.90
55211;DHT22;41082;52.822;6.666;2023-05-18T03:52:42;8.10;99.90
55211;DHT22;41082;52.822;6.666;2023-05-18T03:55:09;8.10;99.90
55211;DHT22;41082;52.822;6.666;2023-05-18T03:57:34;8.10;99.90
55211;DHT22;41082;52.822;6.666;2023-05-18T04:00:00;8.10;99.90
55211;DHT22;41082;52.822;6.666;2023-05-18T04:02:31;8.10;99.90
55211;DHT22;41082;52.822;6.666;2023-05-18T04:04:57;8.10;99.90
55211;DHT22;41082;52.822;6.666;2023-05-18T04:07:23;8.10;99.90
55211;DHT22;41082;52.822;6.666;2023-05-18T04:09:52;8.10;99.90
55211;DHT22;41082;52.822;6.666;2023-05-18T04:12:18;8.10;99.90
55211;DHT22;41082;52.822;6.666;2023-05-18T04:14:44;8.10;99.90
55211;DHT22;41082;52.822;6.666;2023-05-18T04:17:18;8.10;99.90
55211;DHT22;41082;52.822;6.666;2023-05-18T04:19:47;8.10;99.90
55211;DHT22;41082;52.822;6.666;2023-05-18T04:22:12;8.20;99.90
55211;DHT22;41082;52.822;6.666;2023-05-18T04:24:38;8.20;99.90
55211;DHT22;41082;52.822;6.666;2023-05-18T04:27:06;8.20;99.90
55211;DHT22;41082;52.822;6.666;2023-05-18T04:29:33;8.20;99.90
55211;DHT22;41082;52.822;6.666;2023-05-18T04:31:59;8.30;99.90
55211;DHT22;41082;52.822;6.666;2023-05-18T04:34:28;8.30;99.90
55211;DHT22;41082;52.822;6.666;2023-05-18T04:36:55;8.30;99.90
55211;DHT22;41082;52.822;6.666;2023-05-18T04:39:23;8.30;99.90
55211;DHT22;41082;52.822;6.666;2023-05-18T04:41:50;8.30;99.90
55211;DHT22;41082;52.822;6.666;2023-05-18T04:44:23;8.40;99.90
55211;DHT22;41082;52.822;6.666;2023-05-18T04:46:50;8.40;99.90
55211;DHT22;41082;52.822;6.666;2023-05-18T04:49:17;8.50;99.90
55211;DHT22;41082;52.822;6.666;2023-05-18T04:51:49;8.50;99.90
55211;DHT22;41082;52.822;6.666;2023-05-18T04:54:15;8.60;99.90
55211;DHT22;41082;52.822;6.666;2023-05-18T04:56:41;8.60;99.90
55211;DHT22;41082;52.822;6.666;2023-05-18T04:59:09;8.60;99.90
55211;DHT22;41082;52.822;6.666;2023-05-18T05:01:35;8.70;99.90
55211;DHT22;41082;52.822;6.666;2023-05-18T05:04:00;8.70;99.90
55211;DHT22;41082;52.822;6.666;2023-05-18T05:06:26;8.70;99.90
55211;DHT22;41082;52.822;6.666;2023-05-18T05:08:52;8.80;99.90
55211;DHT22;41082;52.822;6.666;2023-05-18T05:11:18;8.80;99.90
55211;DHT22;41082;52.822;6.666;2023-05-18T05:13:43;8.90;99.90
55211;DHT22;41082;52.822;6.666;2023-05-18T05:16:09;9.00;99.90
55211;DHT22;41082;52.822;6.666;2023-05-18T05:18:35;9.10;99.90
55211;DHT22;41082;52.822;6.666;2023-05-18T05:21:00;9.10;99.90
55211;DHT22;41082;52.822;6.666;2023-05-18T05:23:26;9.10;99.90
55211;DHT22;41082;52.822;6.666;2023-05-18T05:25:51;9.20;99.90
55211;DHT22;41082;52.822;6.666;2023-05-18T05:28:17;9.30;99.90
55211;DHT22;41082;52.822;6.666;2023-05-18T05:30:42;9.30;99.90
55211;DHT22;41082;52.822;6.666;2023-05-18T05:33:08;9.40;99.90
55211;DHT22;41082;52.822;6.666;2023-05-18T05:35:33;9.40;99.90
55211;DHT22;41082;52.822;6.666;2023-05-18T05:37:59;9.50;99.90
55211;DHT22;41082;52.822;6.666;2023-05-18T05:40:24;9.50;99.90
55211;DHT22;41082;52.822;6.666;2023-05-18T05:42:50;9.60;99.90
55211;DHT22;41082;52.822;6.666;2023-05-18T05:45:16;9.70;99.90
55211;DHT22;41082;52.822;6.666;2023-05-18T05:47:41;9.80;99.90
55211;DHT22;41082;52.822;6.666;2023-05-18T05:50:07;9.80;99.90
55211;DHT22;41082;52.822;6.666;2023-05-18T05:52:33;9.90;99.90
55211;DHT22;41082;52.822;6.666;2023-05-18T05:54:58;10.00;99.90
55211;DHT22;41082;52.822;6.666;2023-05-18T05:57:24;10.00;99.90
55211;DHT22;41082;52.822;6.666;2023-05-18T05:59:50;10.10;99.90
55211;DHT22;41082;52.822;6.666;2023-05-18T06:02:16;10.10;99.90
55211;DHT22;41082;52.822;6.666;2023-05-18T06:04:41;10.10;99.90
55211;DHT22;41082;52.822;6.666;2023-05-18T06:07:07;10.30;99.90
55211;DHT22;41082;52.822;6.666;2023-05-18T06:09:33;10.30;99.90
55211;DHT22;41082;52.822;6.666;2023-05-18T06:11:59;10.40;99.90
55211;DHT22;41082;52.822;6.666;2023-05-18T06:14:24;10.40;99.90
55211;DHT22;41082;52.822;6.666;2023-05-18T06:16:50;10.40;99.90
55211;DHT22;41082;52.822;6.666;2023-05-18T06:19:16;10.50;99.90
55211;DHT22;41082;52.822;6.666;2023-05-18T06:21:42;10.60;99.90
55211;DHT22;41082;52.822;6.666;2023-05-18T06:24:07;10.60;99.90
55211;DHT22;41082;52.822;6.666;2023-05-18T06:26:33;10.80;99.90
55211;DHT22;41082;52.822;6.666;2023-05-18T06:28:59;10.80;99.90
55211;DHT22;41082;52.822;6.666;2023-05-18T06:31:24;10.90;99.90
55211;DHT22;41082;52.822;6.666;2023-05-18T06:33:50;11.00;99.90
55211;DHT22;41082;52.822;6.666;2023-05-18T06:36:16;11.10;99.90
55211;DHT22;41082;52.822;6.666;2023-05-18T06:38:41;11.20;99.90
55211;DHT22;41082;52.822;6.666;2023-05-18T06:41:07;11.30;99.90
55211;DHT22;41082;52.822;6.666;2023-05-18T06:43:33;11.40;99.90
55211;DHT22;41082;52.822;6.666;2023-05-18T06:45:58;11.50;99.90
55211;DHT22;41082;52.822;6.666;2023-05-18T06:48:26;11.60;99.90
55211;DHT22;41082;52.822;6.666;2023-05-18T06:50:52;11.60;99.90
55211;DHT22;41082;52.822;6.666;2023-05-18T06:53:18;11.80;99.90
55211;DHT22;41082;52.822;6.666;2023-05-18T06:55:44;11.90;99.90
55211;DHT22;41082;52.822;6.666;2023-05-18T06:58:10;12.00;99.90
55211;DHT22;41082;52.822;6.666;2023-05-18T07:00:37;12.10;99.90
55211;DHT22;41082;52.822;6.666;2023-05-18T07:03:02;12.20;99.90
55211;DHT22;41082;52.822;6.666;2023-05-18T07:05:28;12.30;99.90
55211;DHT22;41082;52.822;6.666;2023-05-18T07:07:54;12.30;99.90
55211;DHT22;41082;52.822;6.666;2023-05-18T07:10:20;12.50;99.60
55211;DHT22;41082;52.822;6.666;2023-05-18T07:12:47;12.60;99.60
55211;DHT22;41082;52.822;6.666;2023-05-18T07:15:13;12.70;99.50
55211;DHT22;41082;52.822;6.666;2023-05-18T07:17:38;12.70;99.20
55211;DHT22;41082;52.822;6.666;2023-05-18T07:20:05;12.80;99.10
55211;DHT22;41082;52.822;6.666;2023-05-18T07:22:32;12.90;99.30
55211;DHT22;41082;52.822;6.666;2023-05-18T07:24:57;13.00;99.40
55211;DHT22;41082;52.822;6.666;2023-05-18T07:27:23;13.00;99.40
55211;DHT22;41082;52.822;6.666;2023-05-18T07:29:49;13.10;99.20
55211;DHT22;41082;52.822;6.666;2023-05-18T07:32:15;13.20;98.90
55211;DHT22;41082;52.822;6.666;2023-05-18T07:34:40;13.30;98.50
55211;DHT22;41082;52.822;6.666;2023-05-18T07:37:08;13.40;98.30
55211;DHT22;41082;52.822;6.666;2023-05-18T07:39:34;13.50;98.20
55211;DHT22;41082;52.822;6.666;2023-05-18T07:42:00;13.60;98.10
55211;DHT22;41082;52.822;6.666;2023-05-18T07:44:26;13.60;97.60
55211;DHT22;41082;52.822;6.666;2023-05-18T07:46:52;13.60;97.20
55211;DHT22;41082;52.822;6.666;2023-05-18T07:49:17;13.60;97.20
55211;DHT22;41082;52.822;6.666;2023-05-18T07:51:43;13.70;96.90
55211;DHT22;41082;52.822;6.666;2023-05-18T07:54:08;13.70;96.40
55211;DHT22;41082;52.822;6.666;2023-05-18T07:56:34;13.80;96.50
55211;DHT22;41082;52.822;6.666;2023-05-18T07:59:01;13.90;96.30
55211;DHT22;41082;52.822;6.666;2023-05-18T08:01:27;13.90;96.00
55211;DHT22;41082;52.822;6.666;2023-05-18T08:03:54;13.80;95.40
55211;DHT22;41082;52.822;6.666;2023-05-18T08:06:20;13.90;94.90
55211;DHT22;41082;52.822;6.666;2023-05-18T08:08:46;13.80;93.70
55211;DHT22;41082;52.822;6.666;2023-05-18T08:11:12;13.70;93.00
55211;DHT22;41082;52.822;6.666;2023-05-18T08:13:38;13.70;93.10
55211;DHT22;41082;52.822;6.666;2023-05-18T08:16:03;13.70;93.30
55211;DHT22;41082;52.822;6.666;2023-05-18T08:18:29;13.80;93.30
55211;DHT22;41082;52.822;6.666;2023-05-18T08:20:55;13.70;92.40
55211;DHT22;41082;52.822;6.666;2023-05-18T08:23:20;13.80;91.90
55211;DHT22;41082;52.822;6.666;2023-05-18T08:25:47;13.90;91.30
55211;DHT22;41082;52.822;6.666;2023-05-18T08:28:13;14.00;91.00
55211;DHT22;41082;52.822;6.666;2023-05-18T08:30:38;14.10;91.50
55211;DHT22;41082;52.822;6.666;2023-05-18T08:33:04;14.20;90.80
55211;DHT22;41082;52.822;6.666;2023-05-18T08:35:29;14.40;89.60
55211;DHT22;41082;52.822;6.666;2023-05-18T08:37:56;14.50;86.20
55211;DHT22;41082;52.822;6.666;2023-05-18T08:40:25;14.50;83.50
55211;DHT22;41082;52.822;6.666;2023-05-18T08:43:03;14.40;77.70
55211;DHT22;41082;52.822;6.666;2023-05-18T08:48:21;14.50;79.00
55211;DHT22;41082;52.822;6.666;2023-05-18T08:50:47;14.60;78.10
55211;DHT22;41082;52.822;6.666;2023-05-18T08:53:16;14.70;78.00
55211;DHT22;41082;52.822;6.666;2023-05-18T08:55:44;14.90;78.40
55211;DHT22;41082;52.822;6.666;2023-05-18T08:58:13;15.00;79.60
55211;DHT22;41082;52.822;6.666;2023-05-18T09:00:41;15.00;78.80
55211;DHT22;41082;52.822;6.666;2023-05-18T09:03:07;15.10;79.20
55211;DHT22;41082;52.822;6.666;2023-05-18T09:05:33;15.00;78.20
55211;DHT22;41082;52.822;6.666;2023-05-18T09:07:58;15.00;76.60
55211;DHT22;41082;52.822;6.666;2023-05-18T09:10:25;14.90;76.50
55211;DHT22;41082;52.822;6.666;2023-05-18T09:12:51;14.90;76.30
55211;DHT22;41082;52.822;6.666;2023-05-18T09:15:19;14.90;77.20
55211;DHT22;41082;52.822;6.666;2023-05-18T09:17:46;15.00;77.00
55211;DHT22;41082;52.822;6.666;2023-05-18T09:20:11;15.00;76.90
55211;DHT22;41082;52.822;6.666;2023-05-18T09:22:38;15.20;76.70
55211;DHT22;41082;52.822;6.666;2023-05-18T09:25:07;15.30;76.20
55211;DHT22;41082;52.822;6.666;2023-05-18T09:27:33;15.40;77.10
55211;DHT22;41082;52.822;6.666;2023-05-18T09:29:59;15.50;77.50
55211;DHT22;41082;52.822;6.666;2023-05-18T09:32:25;15.60;76.10
55211;DHT22;41082;52.822;6.666;2023-05-18T09:34:51;15.80;74.40
55211;DHT22;41082;52.822;6.666;2023-05-18T09:37:19;16.00;74.20
55211;DHT22;41082;52.822;6.666;2023-05-18T09:40:00;16.10;73.90
55211;DHT22;41082;52.822;6.666;2023-05-18T09:42:43;16.20;74.40
55211;DHT22;41082;52.822;6.666;2023-05-18T09:45:19;16.30;73.80
55211;DHT22;41082;52.822;6.666;2023-05-18T09:47:45;16.50;73.80
55211;DHT22;41082;52.822;6.666;2023-05-18T09:50:11;16.60;72.90
55211;DHT22;41082;52.822;6.666;2023-05-18T09:52:44;16.70;71.40
55211;DHT22;41082;52.822;6.666;2023-05-18T09:55:18;16.80;70.90
55211;DHT22;41082;52.822;6.666;2023-05-18T09:57:50;16.90;71.00
55211;DHT22;41082;52.822;6.666;2023-05-18T10:00:18;17.00;70.70
55211;DHT22;41082;52.822;6.666;2023-05-18T10:02:48;17.10;70.00
55211;DHT22;41082;52.822;6.666;2023-05-18T10:05:20;17.20;69.20
55211;DHT22;41082;52.822;6.666;2023-05-18T10:07:46;17.20;67.00
55211;DHT22;41082;52.822;6.666;2023-05-18T10:10:16;17.20;65.90
55211;DHT22;41082;52.822;6.666;2023-05-18T10:12:43;17.20;65.30
55211;DHT22;41082;52.822;6.666;2023-05-18T10:15:15;17.30;65.40
55211;DHT22;41082;52.822;6.666;2023-05-18T10:17:42;17.40;64.60
55211;DHT22;41082;52.822;6.666;2023-05-18T10:20:08;17.70;62.40
55211;DHT22;41082;52.822;6.666;2023-05-18T10:22:36;17.80;63.60
55211;DHT22;41082;52.822;6.666;2023-05-18T10:25:05;18.00;64.60
55211;DHT22;41082;52.822;6.666;2023-05-18T10:27:34;18.10;62.70
55211;DHT22;41082;52.822;6.666;2023-05-18T10:30:00;18.30;61.90
55211;DHT22;41082;52.822;6.666;2023-05-18T10:32:29;18.40;60.80
55211;DHT22;41082;52.822;6.666;2023-05-18T10:34:56;18.60;61.60
55211;DHT22;41082;52.822;6.666;2023-05-18T10:37:24;18.90;62.50
55211;DHT22;41082;52.822;6.666;2023-05-18T10:39:55;19.00;62.10
55211;DHT22;41082;52.822;6.666;2023-05-18T10:42:24;18.80;59.10
55211;DHT22;41082;52.822;6.666;2023-05-18T10:44:52;18.70;57.00
55211;DHT22;41082;52.822;6.666;2023-05-18T10:47:19;18.80;56.40
55211;DHT22;41082;52.822;6.666;2023-05-18T10:49:48;18.70;55.30
55211;DHT22;41082;52.822;6.666;2023-05-18T10:52:16;18.80;56.70
55211;DHT22;41082;52.822;6.666;2023-05-18T10:54:42;18.90;56.30
55211;DHT22;41082;52.822;6.666;2023-05-18T10:57:12;19.00;56.40
55211;DHT22;41082;52.822;6.666;2023-05-18T10:59:41;19.10;56.00
55211;DHT22;41082;52.822;6.666;2023-05-18T11:02:09;19.20;56.60
55211;DHT22;41082;52.822;6.666;2023-05-18T11:04:38;19.20;56.50
55211;DHT22;41082;52.822;6.666;2023-05-18T11:07:05;19.40;56.20
55211;DHT22;41082;52.822;6.666;2023-05-18T11:09:35;19.20;54.90
55211;DHT22;41082;52.822;6.666;2023-05-18T11:12:00;19.20;54.60
55211;DHT22;41082;52.822;6.666;2023-05-18T11:14:28;19.30;55.50
55211;DHT22;41082;52.822;6.666;2023-05-18T11:19:40;19.40;54.40
55211;DHT22;41082;52.822;6.666;2023-05-18T11:22:17;19.30;53.90
55211;DHT22;41082;52.822;6.666;2023-05-18T11:24:42;19.20;53.60
55211;DHT22;41082;52.822;6.666;2023-05-18T11:27:14;19.10;54.60
55211;DHT22;41082;52.822;6.666;2023-05-18T11:29:41;19.30;54.80
55211;DHT22;41082;52.822;6.666;2023-05-18T11:32:22;19.30;53.90
55211;DHT22;41082;52.822;6.666;2023-05-18T11:34:50;19.20;51.90
55211;DHT22;41082;52.822;6.666;2023-05-18T11:40:03;19.50;53.80
55211;DHT22;41082;52.822;6.666;2023-05-18T11:42:33;19.50;53.60
55211;DHT22;41082;52.822;6.666;2023-05-18T11:45:09;19.40;52.70
55211;DHT22;41082;52.822;6.666;2023-05-18T11:47:35;19.40;51.80
55211;DHT22;41082;52.822;6.666;2023-05-18T11:50:05;19.20;52.80
55211;DHT22;41082;52.822;6.666;2023-05-18T11:52:31;19.10;52.20
55211;DHT22;41082;52.822;6.666;2023-05-18T11:54:57;19.00;52.40
55211;DHT22;41082;52.822;6.666;2023-05-18T12:00:00;19.20;54.20
55211;DHT22;41082;52.822;6.666;2023-05-18T12:02:30;19.30;54.30
55211;DHT22;41082;52.822;6.666;2023-05-18T12:04:57;19.20;53.60
55211;DHT22;41082;52.822;6.666;2023-05-18T12:07:25;18.80;51.60
55211;DHT22;41082;52.822;6.666;2023-05-18T12:09:57;18.80;51.70
55211;DHT22;41082;52.822;6.666;2023-05-18T12:12:23;18.90;53.30
55211;DHT22;41082;52.822;6.666;2023-05-18T12:14:54;18.90;53.90
55211;DHT22;41082;52.822;6.666;2023-05-18T12:17:21;19.00;55.00
55211;DHT22;41082;52.822;6.666;2023-05-18T12:19:48;19.00;54.40
55211;DHT22;41082;52.822;6.666;2023-05-18T12:22:14;19.00;53.80
55211;DHT22;41082;52.822;6.666;2023-05-18T12:24:41;18.90;53.30
55211;DHT22;41082;52.822;6.666;2023-05-18T12:27:09;18.60;51.30
55211;DHT22;41082;52.822;6.666;2023-05-18T12:29:40;18.20;51.80
55211;DHT22;41082;52.822;6.666;2023-05-18T12:32:10;18.10;52.30
55211;DHT22;41082;52.822;6.666;2023-05-18T12:34:37;18.30;53.40
55211;DHT22;41082;52.822;6.666;2023-05-18T12:37:04;18.50;53.80
55211;DHT22;41082;52.822;6.666;2023-05-18T12:39:30;18.60;53.90
55211;DHT22;41082;52.822;6.666;2023-05-18T12:42:13;18.70;54.90
55211;DHT22;41082;52.822;6.666;2023-05-18T12:44:40;18.90;55.80
55211;DHT22;41082;52.822;6.666;2023-05-18T12:47:09;19.10;57.20
55211;DHT22;41082;52.822;6.666;2023-05-18T12:49:46;19.30;57.90
55211;DHT22;41082;52.822;6.666;2023-05-18T12:52:14;19.40;57.60
55211;DHT22;41082;52.822;6.666;2023-05-18T12:54:56;19.50;57.80
55211;DHT22;41082;52.822;6.666;2023-05-18T12:57:26;19.60;57.10
55211;DHT22;41082;52.822;6.666;2023-05-18T13:00:01;19.60;55.50
55211;DHT22;41082;52.822;6.666;2023-05-18T13:02:37;19.10;53.00
55211;DHT22;41082;52.822;6.666;2023-05-18T13:05:10;19.10;53.30
55211;DHT22;41082;52.822;6.666;2023-05-18T13:07:41;18.70;52.10
55211;DHT22;41082;52.822;6.666;2023-05-18T13:10:12;18.70;53.10
55211;DHT22;41082;52.822;6.666;2023-05-18T13:17:38;19.00;52.30
55211;DHT22;41082;52.822;6.666;2023-05-18T13:20:11;18.80;52.40
55211;DHT22;41082;52.822;6.666;2023-05-18T13:22:38;18.90;54.40
55211;DHT22;41082;52.822;6.666;2023-05-18T13:25:04;19.10;54.80
55211;DHT22;41082;52.822;6.666;2023-05-18T13:27:30;19.20;55.40
55211;DHT22;41082;52.822;6.666;2023-05-18T13:29:55;19.30;55.10
55211;DHT22;41082;52.822;6.666;2023-05-18T13:32:24;19.40;54.80
55211;DHT22;41082;52.822;6.666;2023-05-18T13:34:50;19.40;54.70
55211;DHT22;41082;52.822;6.666;2023-05-18T13:37:17;19.50;54.70
55211;DHT22;41082;52.822;6.666;2023-05-18T13:39:43;19.50;54.50
55211;DHT22;41082;52.822;6.666;2023-05-18T13:42:08;19.60;55.10
55211;DHT22;41082;52.822;6.666;2023-05-18T13:44:34;19.60;54.70
55211;DHT22;41082;52.822;6.666;2023-05-18T13:47:00;19.50;54.10
55211;DHT22;41082;52.822;6.666;2023-05-18T13:49:25;19.40;53.80
55211;DHT22;41082;52.822;6.666;2023-05-18T13:51:51;18.90;50.60
55211;DHT22;41082;52.822;6.666;2023-05-18T13:54:17;18.50;50.70
55211;DHT22;41082;52.822;6.666;2023-05-18T13:56:43;18.20;51.00
55211;DHT22;41082;52.822;6.666;2023-05-18T13:59:08;18.20;51.50
55211;DHT22;41082;52.822;6.666;2023-05-18T14:01:34;18.30;52.20
55211;DHT22;41082;52.822;6.666;2023-05-18T14:03:59;18.50;52.90
55211;DHT22;41082;52.822;6.666;2023-05-18T14:06:25;18.60;53.80
55211;DHT22;41082;52.822;6.666;2023-05-18T14:08:52;18.70;55.30
55211;DHT22;41082;52.822;6.666;2023-05-18T14:11:17;18.80;54.90
55211;DHT22;41082;52.822;6.666;2023-05-18T14:13:43;18.90;53.70
55211;DHT22;41082;52.822;6.666;2023-05-18T14:16:09;18.90;53.90
55211;DHT22;41082;52.822;6.666;2023-05-18T14:18:35;19.00;55.00
55211;DHT22;41082;52.822;6.666;2023-05-18T14:21:00;19.20;53.50
55211;DHT22;41082;52.822;6.666;2023-05-18T14:23:28;18.90;51.90
55211;DHT22;41082;52.822;6.666;2023-05-18T14:25:54;18.60;51.70
55211;DHT22;41082;52.822;6.666;2023-05-18T14:28:20;18.50;52.90
55211;DHT22;41082;52.822;6.666;2023-05-18T14:30:45;18.60;54.00
55211;DHT22;41082;52.822;6.666;2023-05-18T14:33:11;18.70;54.40
55211;DHT22;41082;52.822;6.666;2023-05-18T14:35:36;18.80;54.40
55211;DHT22;41082;52.822;6.666;2023-05-18T14:38:02;18.90;54.50
55211;DHT22;41082;52.822;6.666;2023-05-18T14:40:28;19.00;54.30
55211;DHT22;41082;52.822;6.666;2023-05-18T14:42:54;19.10;54.20
55211;DHT22;41082;52.822;6.666;2023-05-18T14:45:19;19.20;54.30
55211;DHT22;41082;52.822;6.666;2023-05-18T14:47:45;19.20;54.10
55211;DHT22;41082;52.822;6.666;2023-05-18T14:50:11;19.20;54.10
55211;DHT22;41082;52.822;6.666;2023-05-18T14:52:36;18.90;52.80
55211;DHT22;41082;52.822;6.666;2023-05-18T14:55:02;19.00;53.70
55211;DHT22;41082;52.822;6.666;2023-05-18T14:57:28;19.10;54.10
55211;DHT22;41082;52.822;6.666;2023-05-18T14:59:53;19.20;54.30
55211;DHT22;41082;52.822;6.666;2023-05-18T15:02:19;19.20;54.50
55211;DHT22;41082;52.822;6.666;2023-05-18T15:04:44;19.30;54.80
55211;DHT22;41082;52.822;6.666;2023-05-18T15:07:10;19.40;54.70
55211;DHT22;41082;52.822;6.666;2023-05-18T15:09:36;19.20;53.80
55211;DHT22;41082;52.822;6.666;2023-05-18T15:12:01;19.10;53.90
55211;DHT22;41082;52.822;6.666;2023-05-18T15:14:27;19.10;54.00
55211;DHT22;41082;52.822;6.666;2023-05-18T15:16:53;19.10;54.60
55211;DHT22;41082;52.822;6.666;2023-05-18T15:19:18;19.00;54.50
55211;DHT22;41082;52.822;6.666;2023-05-18T15:21:44;18.90;54.00
55211;DHT22;41082;52.822;6.666;2023-05-18T15:24:09;18.60;53.50
55211;DHT22;41082;52.822;6.666;2023-05-18T15:26:35;18.30;53.20
55211;DHT22;41082;52.822;6.666;2023-05-18T15:29:01;18.20;53.40
55211;DHT22;41082;52.822;6.666;2023-05-18T15:31:27;17.90;53.60
55211;DHT22;41082;52.822;6.666;2023-05-18T15:33:53;17.70;53.90
55211;DHT22;41082;52.822;6.666;2023-05-18T15:36:18;17.70;54.40
55211;DHT22;41082;52.822;6.666;2023-05-18T15:38:45;17.80;54.70
55211;DHT22;41082;52.822;6.666;2023-05-18T15:41:11;17.80;54.80
55211;DHT22;41082;52.822;6.666;2023-05-18T15:43:37;18.00;54.70
55211;DHT22;41082;52.822;6.666;2023-05-18T15:46:03;18.10;54.20
55211;DHT22;41082;52.822;6.666;2023-05-18T15:48:29;18.10;53.90
55211;DHT22;41082;52.822;6.666;2023-05-18T15:50:55;18.20;53.90
55211;DHT22;41082;52.822;6.666;2023-05-18T15:53:21;18.30;54.00
55211;DHT22;41082;52.822;6.666;2023-05-18T15:55:46;18.30;54.40
55211;DHT22;41082;52.822;6.666;2023-05-18T15:58:15;18.40;54.70